sensor_id;sensor_type;location;lat;lon;timestamp;temperature;humidity
49052;DHT22;34866;48.670;18.260;2023-08-08T00:00:19;333.60;819.20
49052;DHT22;34866;48.670;18.260;2023-08-08T00:02:50;333.60;614.40
49052;DHT22;34866;48.670;18.260;2023-08-08T00:05:45;333.60;793.60
49052;DHT22;34866;48.670;18.260;2023-08-08T00:11:39;333.60;793.60
49052;DHT22;34866;48.670;18.260;2023-08-08T00:14:36;333.60;768.00
49052;DHT22;34866;48.670;18.260;2023-08-08T00:17:03;333.60;1075.20
49052;DHT22;34866;48.670;18.260;2023-08-08T00:19:54;333.50;1305.60
49052;DHT22;34866;48.670;18.260;2023-08-08T00:25:59;333.60;1126.40
49052;DHT22;34866;48.670;18.260;2023-08-08T00:28:45;333.60;1408.00
49052;DHT22;34866;48.670;18.260;2023-08-08T00:31:35;333.60;1126.40
49052;DHT22;34866;48.670;18.260;2023-08-08T00:34:00;333.70;998.40
49052;DHT22;34866;48.670;18.260;2023-08-08T00:37:03;333.60;1228.80
49052;DHT22;34866;48.670;18.260;2023-08-08T00:39:58;333.70;537.60
49052;DHT22;34866;48.670;18.260;2023-08-08T00:42:52;333.70;563.20
49052;DHT22;34866;48.670;18.260;2023-08-08T00:45:58;333.60;435.20
49052;DHT22;34866;48.670;18.260;2023-08-08T00:48:56;333.50;896.00
49052;DHT22;34866;48.670;18.260;2023-08-08T00:51:24;333.50;947.20
49052;DHT22;34866;48.670;18.260;2023-08-08T00:53:50;333.40;1126.40
49052;DHT22;34866;48.670;18.260;2023-08-08T00:56:20;333.40;1075.20
49052;DHT22;34866;48.670;18.260;2023-08-08T00:58:54;333.40;1126.40
49052;DHT22;34866;48.670;18.260;2023-08-08T01:01:30;333.40;1536.00
49052;DHT22;34866;48.670;18.260;2023-08-08T01:03:56;333.60;460.80
49052;DHT22;34866;48.670;18.260;2023-08-08T01:06:31;333.50;870.40
49052;DHT22;34866;48.670;18.260;2023-08-08T01:12:01;333.40;998.40
49052;DHT22;34866;48.670;18.260;2023-08-08T01:14:32;333.40;1740.80
49052;DHT22;34866;48.670;18.260;2023-08-08T01:17:08;333.40;1280.00
49052;DHT22;34866;48.670;18.260;2023-08-08T01:20:07;333.50;2278.40
49052;DHT22;34866;48.670;18.260;2023-08-08T01:22:47;333.20;2329.60
49052;DHT22;34866;48.670;18.260;2023-08-08T01:25:18;333.20;2329.60
49052;DHT22;34866;48.670;18.260;2023-08-08T01:27:44;333.10;2329.60
49052;DHT22;34866;48.670;18.260;2023-08-08T01:30:13;333.30;2329.60
49052;DHT22;34866;48.670;18.260;2023-08-08T01:33:06;333.50;2073.60
49052;DHT22;34866;48.670;18.260;2023-08-08T01:36:22;333.40;2329.60
49052;DHT22;34866;48.670;18.260;2023-08-08T01:39:00;333.30;2329.60
49052;DHT22;34866;48.670;18.260;2023-08-08T01:41:32;333.30;2329.60
49052;DHT22;34866;48.670;18.260;2023-08-08T01:43:59;333.50;2329.60
49052;DHT22;34866;48.670;18.260;2023-08-08T01:46:27;333.40;2329.60
49052;DHT22;34866;48.670;18.260;2023-08-08T01:49:13;333.30;2329.60
49052;DHT22;34866;48.670;18.260;2023-08-08T01:51:39;333.30;2329.60
49052;DHT22;34866;48.670;18.260;2023-08-08T01:54:05;333.30;2329.60
49052;DHT22;34866;48.670;18.260;2023-08-08T01:56:57;333.20;2329.60
49052;DHT22;34866;48.670;18.260;2023-08-08T01:59:50;333.30;2329.60
49052;DHT22;34866;48.670;18.260;2023-08-08T02:02:16;333.30;2329.60
49052;DHT22;34866;48.670;18.260;2023-08-08T02:04:45;333.20;2329.60
49052;DHT22;34866;48.670;18.260;2023-08-08T02:07:15;333.30;2329.60
49052;DHT22;34866;48.670;18.260;2023-08-08T02:10:22;333.30;2329.60
49052;DHT22;34866;48.670;18.260;2023-08-08T02:12:51;333.30;2329.60
49052;DHT22;34866;48.670;18.260;2023-08-08T02:15:23;333.20;2329.60
49052;DHT22;34866;48.670;18.260;2023-08-08T02:18:10;333.30;2329.60
49052;DHT22;34866;48.670;18.260;2023-08-08T02:20:57;333.10;2329.60
49052;DHT22;34866;48.670;18.260;2023-08-08T02:23:33;333.20;2329.60
49052;DHT22;34866;48.670;18.260;2023-08-08T02:26:11;333.30;2329.60
49052;DHT22;34866;48.670;18.260;2023-08-08T02:28:46;333.30;2329.60
49052;DHT22;34866;48.670;18.260;2023-08-08T02:31:18;333.40;2329.60
49052;DHT22;34866;48.670;18.260;2023-08-08T02:33:50;333.30;2329.60
49052;DHT22;34866;48.670;18.260;2023-08-08T02:36:47;333.20;2329.60
49052;DHT22;34866;48.670;18.260;2023-08-08T02:39:18;333.20;2329.60
49052;DHT22;34866;48.670;18.260;2023-08-08T02:42:04;333.20;2329.60
49052;DHT22;34866;48.670;18.260;2023-08-08T02:45:42;333.20;2329.60
49052;DHT22;34866;48.670;18.260;2023-08-08T02:48:53;333.20;2329.60
49052;DHT22;34866;48.670;18.260;2023-08-08T02:51:41;333.20;2329.60
49052;DHT22;34866;48.670;18.260;2023-08-08T02:54:31;333.20;2329.60
49052;DHT22;34866;48.670;18.260;2023-08-08T02:57:16;333.00;2329.60
49052;DHT22;34866;48.670;18.260;2023-08-08T02:59:51;333.00;2329.60
49052;DHT22;34866;48.670;18.260;2023-08-08T03:02:40;333.10;2329.60
49052;DHT22;34866;48.670;18.260;2023-08-08T03:06:09;333.00;2329.60
49052;DHT22;34866;48.670;18.260;2023-08-08T03:09:36;333.00;2329.60
49052;DHT22;34866;48.670;18.260;2023-08-08T03:15:52;308.10;2304.00
49052;DHT22;34866;48.670;18.260;2023-08-08T03:19:22;307.90;2304.00
49052;DHT22;34866;48.670;18.260;2023-08-08T03:22:51;307.80;2304.00
49052;DHT22;34866;48.670;18.260;2023-08-08T03:33:39;307.70;2304.00
49052;DHT22;34866;48.670;18.260;2023-08-08T03:36:19;307.80;2304.00
49052;DHT22;34866;48.670;18.260;2023-08-08T03:38:48;307.70;2176.00
49052;DHT22;34866;48.670;18.260;2023-08-08T03:45:11;308.00;2304.00
49052;DHT22;34866;48.670;18.260;2023-08-08T03:51:06;308.00;2304.00
49052;DHT22;34866;48.670;18.260;2023-08-08T03:54:17;307.80;1971.20
49052;DHT22;34866;48.670;18.260;2023-08-08T03:56:43;307.90;2304.00
49052;DHT22;34866;48.670;18.260;2023-08-08T03:59:15;307.90;2304.00
49052;DHT22;34866;48.670;18.260;2023-08-08T04:05:35;307.80;2304.00
49052;DHT22;34866;48.670;18.260;2023-08-08T04:08:54;307.70;2304.00
49052;DHT22;34866;48.670;18.260;2023-08-08T04:12:25;307.50;2304.00
49052;DHT22;34866;48.670;18.260;2023-08-08T04:32:04;307.60;2201.60
49052;DHT22;34866;48.670;18.260;2023-08-08T04:40:06;307.60;2304.00
49052;DHT22;34866;48.670;18.260;2023-08-08T04:47:39;307.80;2304.00
49052;DHT22;34866;48.670;18.260;2023-08-08T04:50:20;308.00;2304.00
49052;DHT22;34866;48.670;18.260;2023-08-08T05:08:23;333.10;2329.60
49052;DHT22;34866;48.670;18.260;2023-08-08T05:11:26;333.30;2252.80
49052;DHT22;34866;48.670;18.260;2023-08-08T05:13:58;333.40;1945.60
49052;DHT22;34866;48.670;18.260;2023-08-08T05:16:27;333.50;1638.40
49052;DHT22;34866;48.670;18.260;2023-08-08T05:18:57;333.60;2022.40
49052;DHT22;34866;48.670;18.260;2023-08-08T05:21:41;333.70;1740.80
49052;DHT22;34866;48.670;18.260;2023-08-08T05:24:32;358.40;1280.00
49052;DHT22;34866;48.670;18.260;2023-08-08T05:30:38;358.50;1049.60
49052;DHT22;34866;48.670;18.260;2023-08-08T05:33:25;358.60;460.80
49052;DHT22;34866;48.670;18.260;2023-08-08T05:36:32;358.60;281.60
49052;DHT22;34866;48.670;18.260;2023-08-08T05:39:13;384.30;128.00
49052;DHT22;34866;48.670;18.260;2023-08-08T05:41:41;384.90;128.00
49052;DHT22;34866;48.670;18.260;2023-08-08T05:47:46;384.90;128.00
49052;DHT22;34866;48.670;18.260;2023-08-08T05:51:18;359.30;128.00
49052;DHT22;34866;48.670;18.260;2023-08-08T05:54:36;359.20;128.00
49052;DHT22;34866;48.670;18.260;2023-08-08T05:57:31;384.10;128.00
49052;DHT22;34866;48.670;18.260;2023-08-08T06:00:20;384.20;128.00
49052;DHT22;34866;48.670;18.260;2023-08-08T06:06:29;384.30;128.00
49052;DHT22;34866;48.670;18.260;2023-08-08T06:09:44;384.50;128.00
49052;DHT22;34866;48.670;18.260;2023-08-08T06:12:19;384.60;128.00
49052;DHT22;34866;48.670;18.260;2023-08-08T06:15:09;384.70;128.00
49052;DHT22;34866;48.670;18.260;2023-08-08T06:24:37;384.60;128.00
49052;DHT22;34866;48.670;18.260;2023-08-08T06:27:08;384.50;128.00
49052;DHT22;34866;48.670;18.260;2023-08-08T06:32:36;384.90;128.00
49052;DHT22;34866;48.670;18.260;2023-08-08T06:35:02;384.60;128.00
49052;DHT22;34866;48.670;18.260;2023-08-08T06:37:42;384.70;128.00
49052;DHT22;34866;48.670;18.260;2023-08-08T06:47:32;384.90;128.00
49052;DHT22;34866;48.670;18.260;2023-08-08T06:49:58;409.80;128.00
49052;DHT22;34866;48.670;18.260;2023-08-08T06:52:52;409.70;128.00
49052;DHT22;34866;48.670;18.260;2023-08-08T06:56:27;409.60;128.00
49052;DHT22;34866;48.670;18.260;2023-08-08T06:59:56;409.60;128.00
49052;DHT22;34866;48.670;18.260;2023-08-08T07:03:35;384.90;128.00
49052;DHT22;34866;48.670;18.260;2023-08-08T07:06:21;409.60;128.00
49052;DHT22;34866;48.670;18.260;2023-08-08T07:08:55;384.90;128.00
49052;DHT22;34866;48.670;18.260;2023-08-08T07:11:48;409.60;128.00
49052;DHT22;34866;48.670;18.260;2023-08-08T07:14:19;409.80;128.00
49052;DHT22;34866;48.670;18.260;2023-08-08T07:17:20;410.20;128.00
49052;DHT22;34866;48.670;18.260;2023-08-08T07:19:50;409.90;128.00
49052;DHT22;34866;48.670;18.260;2023-08-08T07:22:55;410.20;128.00
49052;DHT22;34866;48.670;18.260;2023-08-08T07:28:51;410.40;128.00
49052;DHT22;34866;48.670;18.260;2023-08-08T07:32:07;410.40;128.00
49052;DHT22;34866;48.670;18.260;2023-08-08T07:43:52;435.30;128.00
49052;DHT22;34866;48.670;18.260;2023-08-08T07:46:18;435.20;128.00
49052;DHT22;34866;48.670;18.260;2023-08-08T07:48:44;435.50;128.00
49052;DHT22;34866;48.670;18.260;2023-08-08T07:51:12;435.30;128.00
49052;DHT22;34866;48.670;18.260;2023-08-08T07:57:46;435.20;128.00
49052;DHT22;34866;48.670;18.260;2023-08-08T08:00:38;410.40;128.00
49052;DHT22;34866;48.670;18.260;2023-08-08T08:03:04;435.30;128.00
49052;DHT22;34866;48.670;18.260;2023-08-08T08:05:55;435.50;128.00
49052;DHT22;34866;48.670;18.260;2023-08-08T08:08:41;435.60;128.00
49052;DHT22;34866;48.670;18.260;2023-08-08T08:11:11;435.70;128.00
49052;DHT22;34866;48.670;18.260;2023-08-08T08:14:00;435.60;128.00
49052;DHT22;34866;48.670;18.260;2023-08-08T08:16:26;435.90;128.00
49052;DHT22;34866;48.670;18.260;2023-08-08T08:22:13;436.10;256.00
49052;DHT22;34866;48.670;18.260;2023-08-08T08:28:04;436.00;332.80
49052;DHT22;34866;48.670;18.260;2023-08-08T08:30:49;460.80;384.00
49052;DHT22;34866;48.670;18.260;2023-08-08T08:33:34;435.80;128.00
49052;DHT22;34866;48.670;18.260;2023-08-08T08:36:00;435.90;128.00
49052;DHT22;34866;48.670;18.260;2023-08-08T08:38:31;436.10;128.00
49052;DHT22;34866;48.670;18.260;2023-08-08T08:41:04;460.90;128.00
49052;DHT22;34866;48.670;18.260;2023-08-08T08:43:50;460.80;358.40
49052;DHT22;34866;48.670;18.260;2023-08-08T08:47:03;461.10;128.00
49052;DHT22;34866;48.670;18.260;2023-08-08T08:49:38;461.10;128.00
49052;DHT22;34866;48.670;18.260;2023-08-08T08:52:43;461.20;128.00
49052;DHT22;34866;48.670;18.260;2023-08-08T08:55:46;461.30;128.00
49052;DHT22;34866;48.670;18.260;2023-08-08T08:58:47;461.40;128.00
49052;DHT22;34866;48.670;18.260;2023-08-08T09:01:51;461.50;128.00
49052;DHT22;34866;48.670;18.260;2023-08-08T09:04:47;461.60;128.00
49052;DHT22;34866;48.670;18.260;2023-08-08T09:10:31;461.20;128.00
49052;DHT22;34866;48.670;18.260;2023-08-08T09:16:33;461.00;128.00
49052;DHT22;34866;48.670;18.260;2023-08-08T09:19:00;461.60;128.00
49052;DHT22;34866;48.670;18.260;2023-08-08T09:24:40;486.50;128.00
49052;DHT22;34866;48.670;18.260;2023-08-08T09:27:18;486.90;128.00
49052;DHT22;34866;48.670;18.260;2023-08-08T09:41:11;461.20;128.00
49052;DHT22;34866;48.670;18.260;2023-08-08T09:44:27;460.90;128.00
49052;DHT22;34866;48.670;18.260;2023-08-08T09:47:02;460.80;128.00
49052;DHT22;34866;48.670;18.260;2023-08-08T09:53:12;436.10;128.00
49052;DHT22;34866;48.670;18.260;2023-08-08T09:55:57;435.90;409.60
49052;DHT22;34866;48.670;18.260;2023-08-08T09:58:23;435.50;128.00
49052;DHT22;34866;48.670;18.260;2023-08-08T10:00:50;435.20;128.00
49052;DHT22;34866;48.670;18.260;2023-08-08T10:03:18;435.20;128.00
49052;DHT22;34866;48.670;18.260;2023-08-08T10:05:45;410.50;128.00
49052;DHT22;34866;48.670;18.260;2023-08-08T10:08:12;435.20;128.00
49052;DHT22;34866;48.670;18.260;2023-08-08T10:10:41;435.20;128.00
49052;DHT22;34866;48.670;18.260;2023-08-08T10:13:08;435.30;128.00
49052;DHT22;34866;48.670;18.260;2023-08-08T10:15:43;435.30;128.00
49052;DHT22;34866;48.670;18.260;2023-08-08T10:18:09;410.00;128.00
49052;DHT22;34866;48.670;18.260;2023-08-08T10:20:37;384.90;128.00
49052;DHT22;34866;48.670;18.260;2023-08-08T10:23:06;409.60;1177.60
49052;DHT22;34866;48.670;18.260;2023-08-08T10:25:33;409.80;153.60
49052;DHT22;34866;48.670;18.260;2023-08-08T10:28:10;409.80;256.00
49052;DHT22;34866;48.670;18.260;2023-08-08T10:30:44;409.60;1075.20
49052;DHT22;34866;48.670;18.260;2023-08-08T10:33:28;410.00;1664.00
49052;DHT22;34866;48.670;18.260;2023-08-08T10:36:08;410.10;128.00
49052;DHT22;34866;48.670;18.260;2023-08-08T10:38:46;435.80;128.00
49052;DHT22;34866;48.670;18.260;2023-08-08T10:41:21;436.10;128.00
49052;DHT22;34866;48.670;18.260;2023-08-08T10:43:56;435.70;128.00
49052;DHT22;34866;48.670;18.260;2023-08-08T10:46:31;435.40;128.00
49052;DHT22;34866;48.670;18.260;2023-08-08T10:49:01;435.50;128.00
49052;DHT22;34866;48.670;18.260;2023-08-08T10:51:44;435.40;128.00
49052;DHT22;34866;48.670;18.260;2023-08-08T10:54:24;435.20;128.00
49052;DHT22;34866;48.670;18.260;2023-08-08T10:56:56;435.30;128.00
49052;DHT22;34866;48.670;18.260;2023-08-08T10:59:42;435.30;128.00
49052;DHT22;34866;48.670;18.260;2023-08-08T11:02:14;435.40;128.00
49052;DHT22;34866;48.670;18.260;2023-08-08T11:04:55;435.40;128.00
49052;DHT22;34866;48.670;18.260;2023-08-08T11:07:32;435.30;128.00
49052;DHT22;34866;48.670;18.260;2023-08-08T11:10:00;435.40;128.00
49052;DHT22;34866;48.670;18.260;2023-08-08T11:12:28;435.30;128.00
49052;DHT22;34866;48.670;18.260;2023-08-08T11:18:21;435.40;128.00
49052;DHT22;34866;48.670;18.260;2023-08-08T11:20:56;435.50;128.00
49052;DHT22;34866;48.670;18.260;2023-08-08T11:30:47;460.90;128.00
49052;DHT22;34866;48.670;18.260;2023-08-08T11:33:57;461.00;128.00
49052;DHT22;34866;48.670;18.260;2023-08-08T11:36:39;461.20;128.00
49052;DHT22;34866;48.670;18.260;2023-08-08T11:39:17;461.20;128.00
49052;DHT22;34866;48.670;18.260;2023-08-08T11:41:43;461.40;128.00
49052;DHT22;34866;48.670;18.260;2023-08-08T11:47:07;461.50;128.00
49052;DHT22;34866;48.670;18.260;2023-08-08T11:53:11;461.10;128.00
49052;DHT22;34866;48.670;18.260;2023-08-08T12:00:29;461.50;128.00
49052;DHT22;34866;48.670;18.260;2023-08-08T12:07:07;461.70;128.00
49052;DHT22;34866;48.670;18.260;2023-08-08T12:10:05;461.60;128.00
49052;DHT22;34866;48.670;18.260;2023-08-08T12:12:55;461.30;128.00
49052;DHT22;34866;48.670;18.260;2023-08-08T12:15:43;461.20;128.00
49052;DHT22;34866;48.670;18.260;2023-08-08T12:22:14;461.00;128.00
49052;DHT22;34866;48.670;18.260;2023-08-08T12:25:02;460.80;128.00
49052;DHT22;34866;48.670;18.260;2023-08-08T12:28:06;436.10;128.00
49052;DHT22;34866;48.670;18.260;2023-08-08T12:30:55;436.10;128.00
49052;DHT22;34866;48.670;18.260;2023-08-08T12:33:21;435.80;128.00
49052;DHT22;34866;48.670;18.260;2023-08-08T12:35:47;435.50;128.00
49052;DHT22;34866;48.670;18.260;2023-08-08T12:38:13;435.30;128.00
49052;DHT22;34866;48.670;18.260;2023-08-08T12:40:39;410.50;128.00
49052;DHT22;34866;48.670;18.260;2023-08-08T12:43:05;435.40;128.00
49052;DHT22;34866;48.670;18.260;2023-08-08T12:45:31;435.80;128.00
49052;DHT22;34866;48.670;18.260;2023-08-08T12:47:56;460.80;128.00
49052;DHT22;34866;48.670;18.260;2023-08-08T12:50:22;461.20;128.00
49052;DHT22;34866;48.670;18.260;2023-08-08T12:52:48;461.50;128.00
49052;DHT22;34866;48.670;18.260;2023-08-08T12:55:15;486.50;128.00
49052;DHT22;34866;48.670;18.260;2023-08-08T12:57:43;461.60;128.00
49052;DHT22;34866;48.670;18.260;2023-08-08T13:00:15;461.00;128.00
49052;DHT22;34866;48.670;18.260;2023-08-08T13:02:42;461.30;128.00
49052;DHT22;34866;48.670;18.260;2023-08-08T13:05:11;461.30;128.00
49052;DHT22;34866;48.670;18.260;2023-08-08T13:07:37;461.40;537.60
49052;DHT22;34866;48.670;18.260;2023-08-08T13:13:28;486.70;230.40
49052;DHT22;34866;48.670;18.260;2023-08-08T13:19:25;487.30;128.00
49052;DHT22;34866;48.670;18.260;2023-08-08T13:21:57;487.10;230.40
49052;DHT22;34866;48.670;18.260;2023-08-08T13:35:53;486.60;128.00
49052;DHT22;34866;48.670;18.260;2023-08-08T13:46:33;487.20;128.00
49052;DHT22;34866;48.670;18.260;2023-08-08T13:52:14;512.40;128.00
49052;DHT22;34866;48.670;18.260;2023-08-08T13:54:47;512.60;128.00
49052;DHT22;34866;48.670;18.260;2023-08-08T13:57:16;512.00;128.00
49052;DHT22;34866;48.670;18.260;2023-08-08T14:00:35;512.00;128.00
49052;DHT22;34866;48.670;18.260;2023-08-08T14:03:12;512.10;128.00
49052;DHT22;34866;48.670;18.260;2023-08-08T14:06:00;512.10;128.00
49052;DHT22;34866;48.670;18.260;2023-08-08T14:09:14;512.20;128.00
49052;DHT22;34866;48.670;18.260;2023-08-08T14:11:56;487.20;128.00
49052;DHT22;34866;48.670;18.260;2023-08-08T14:15:22;512.00;128.00
49052;DHT22;34866;48.670;18.260;2023-08-08T14:17:58;487.00;128.00
49052;DHT22;34866;48.670;18.260;2023-08-08T14:21:34;486.90;128.00
49052;DHT22;34866;48.670;18.260;2023-08-08T14:24:11;487.10;128.00
49052;DHT22;34866;48.670;18.260;2023-08-08T14:26:42;487.00;128.00
49052;DHT22;34866;48.670;18.260;2023-08-08T14:29:12;487.10;128.00
49052;DHT22;34866;48.670;18.260;2023-08-08T14:31:41;487.30;128.00
49052;DHT22;34866;48.670;18.260;2023-08-08T14:34:07;512.60;128.00
49052;DHT22;34866;48.670;18.260;2023-08-08T14:36:50;537.70;128.00
49052;DHT22;34866;48.670;18.260;2023-08-08T14:39:15;512.90;128.00
49052;DHT22;34866;48.670;18.260;2023-08-08T14:41:47;512.50;128.00
49052;DHT22;34866;48.670;18.260;2023-08-08T14:44:13;512.00;128.00
49052;DHT22;34866;48.670;18.260;2023-08-08T14:47:03;512.00;128.00
49052;DHT22;34866;48.670;18.260;2023-08-08T14:49:29;487.30;128.00
49052;DHT22;34866;48.670;18.260;2023-08-08T14:52:31;487.10;128.00
49052;DHT22;34866;48.670;18.260;2023-08-08T14:55:01;487.10;128.00
49052;DHT22;34866;48.670;18.260;2023-08-08T14:57:28;487.00;128.00
49052;DHT22;34866;48.670;18.260;2023-08-08T14:59:57;486.80;128.00
49052;DHT22;34866;48.670;18.260;2023-08-08T15:02:28;486.80;128.00
49052;DHT22;34866;48.670;18.260;2023-08-08T15:05:17;486.80;128.00
49052;DHT22;34866;48.670;18.260;2023-08-08T15:07:44;486.80;128.00
49052;DHT22;34866;48.670;18.260;2023-08-08T15:10:09;486.80;128.00
49052;DHT22;34866;48.670;18.260;2023-08-08T15:12:55;486.90;128.00
49052;DHT22;34866;48.670;18.260;2023-08-08T15:15:21;486.90;128.00
49052;DHT22;34866;48.670;18.260;2023-08-08T15:17:49;486.80;128.00
49052;DHT22;34866;48.670;18.260;2023-08-08T15:20:16;486.80;128.00
49052;DHT22;34866;48.670;18.260;2023-08-08T15:22:41;486.70;128.00
49052;DHT22;34866;48.670;18.260;2023-08-08T15:25:27;486.80;128.00
49052;DHT22;34866;48.670;18.260;2023-08-08T15:28:28;486.90;128.00
49052;DHT22;34866;48.670;18.260;2023-08-08T15:30:55;487.20;128.00
49052;DHT22;34866;48.670;18.260;2023-08-08T15:33:22;512.40;128.00
49052;DHT22;34866;48.670;18.260;2023-08-08T15:35:48;512.70;128.00
49052;DHT22;34866;48.670;18.260;2023-08-08T15:38:15;512.00;128.00
49052;DHT22;34866;48.670;18.260;2023-08-08T15:41:13;487.20;128.00
49052;DHT22;34866;48.670;18.260;2023-08-08T15:43:39;487.00;128.00
49052;DHT22;34866;48.670;18.260;2023-08-08T15:46:35;486.90;128.00
49052;DHT22;34866;48.670;18.260;2023-08-08T15:49:01;486.90;128.00
49052;DHT22;34866;48.670;18.260;2023-08-08T15:51:47;486.90;128.00
49052;DHT22;34866;48.670;18.260;2023-08-08T15:54:23;486.90;128.00
49052;DHT22;34866;48.670;18.260;2023-08-08T15:57:08;486.90;128.00
49052;DHT22;34866;48.670;18.260;2023-08-08T15:59:34;486.80;128.00
49052;DHT22;34866;48.670;18.260;2023-08-08T16:01:59;487.20;128.00
49052;DHT22;34866;48.670;18.260;2023-08-08T16:04:25;487.30;128.00
49052;DHT22;34866;48.670;18.260;2023-08-08T16:06:50;512.10;128.00
49052;DHT22;34866;48.670;18.260;2023-08-08T16:09:45;512.30;128.00
49052;DHT22;34866;48.670;18.260;2023-08-08T16:12:11;512.40;128.00
49052;DHT22;34866;48.670;18.260;2023-08-08T16:14:38;512.60;128.00
49052;DHT22;34866;48.670;18.260;2023-08-08T16:17:09;512.60;128.00
49052;DHT22;34866;48.670;18.260;2023-08-08T16:19:36;512.50;128.00
49052;DHT22;34866;48.670;18.260;2023-08-08T16:22:02;512.40;486.40
49052;DHT22;34866;48.670;18.260;2023-08-08T16:24:33;487.30;128.00
49052;DHT22;34866;48.670;18.260;2023-08-08T16:27:21;486.90;128.00
49052;DHT22;34866;48.670;18.260;2023-08-08T16:29:48;486.70;128.00
49052;DHT22;34866;48.670;18.260;2023-08-08T16:32:14;486.60;128.00
49052;DHT22;34866;48.670;18.260;2023-08-08T16:34:40;486.50;128.00
49052;DHT22;34866;48.670;18.260;2023-08-08T16:37:08;486.40;128.00
49052;DHT22;34866;48.670;18.260;2023-08-08T16:39:34;461.70;128.00
49052;DHT22;34866;48.670;18.260;2023-08-08T16:41:59;461.70;128.00
49052;DHT22;34866;48.670;18.260;2023-08-08T16:44:49;461.70;128.00
49052;DHT22;34866;48.670;18.260;2023-08-08T16:47:17;461.70;128.00
49052;DHT22;34866;48.670;18.260;2023-08-08T16:49:46;461.60;128.00
49052;DHT22;34866;48.670;18.260;2023-08-08T16:52:13;461.50;128.00
49052;DHT22;34866;48.670;18.260;2023-08-08T16:54:44;461.40;128.00
49052;DHT22;34866;48.670;18.260;2023-08-08T16:57:32;461.40;128.00
49052;DHT22;34866;48.670;18.260;2023-08-08T16:59:59;461.30;128.00
49052;DHT22;34866;48.670;18.260;2023-08-08T17:02:32;461.00;128.00
49052;DHT22;34866;48.670;18.260;2023-08-08T17:05:01;461.00;128.00
49052;DHT22;34866;48.670;18.260;2023-08-08T17:07:31;461.00;128.00
49052;DHT22;34866;48.670;18.260;2023-08-08T17:10:29;461.30;128.00
49052;DHT22;34866;48.670;18.260;2023-08-08T17:12:59;461.30;128.00
49052;DHT22;34866;48.670;18.260;2023-08-08T17:15:30;461.00;128.00
49052;DHT22;34866;48.670;18.260;2023-08-08T17:17:56;460.90;281.60
49052;DHT22;34866;48.670;18.260;2023-08-08T17:20:23;436.10;128.00
49052;DHT22;34866;48.670;18.260;2023-08-08T17:22:55;435.70;128.00
49052;DHT22;34866;48.670;18.260;2023-08-08T17:25:26;435.50;128.00
49052;DHT22;34866;48.670;18.260;2023-08-08T17:28:04;435.40;128.00
49052;DHT22;34866;48.670;18.260;2023-08-08T17:30:34;410.30;128.00
49052;DHT22;34866;48.670;18.260;2023-08-08T17:33:27;410.00;128.00
49052;DHT22;34866;48.670;18.260;2023-08-08T17:35:58;409.80;128.00
49052;DHT22;34866;48.670;18.260;2023-08-08T17:41:51;409.70;128.00
49052;DHT22;34866;48.670;18.260;2023-08-08T17:44:18;384.90;1484.80
49052;DHT22;34866;48.670;18.260;2023-08-08T17:46:44;384.80;2073.60
49052;DHT22;34866;48.670;18.260;2023-08-08T17:49:11;384.60;2329.60
49052;DHT22;34866;48.670;18.260;2023-08-08T17:51:37;384.50;2329.60
49052;DHT22;34866;48.670;18.260;2023-08-08T17:54:04;384.60;2329.60
49052;DHT22;34866;48.670;18.260;2023-08-08T17:56:32;384.50;2329.60
49052;DHT22;34866;48.670;18.260;2023-08-08T17:58:58;384.40;2329.60
49052;DHT22;34866;48.670;18.260;2023-08-08T18:01:24;384.40;2329.60
49052;DHT22;34866;48.670;18.260;2023-08-08T18:03:49;384.30;2329.60
49052;DHT22;34866;48.670;18.260;2023-08-08T18:06:16;384.50;2329.60
49052;DHT22;34866;48.670;18.260;2023-08-08T18:08:42;384.20;2329.60
49052;DHT22;34866;48.670;18.260;2023-08-08T18:11:09;384.00;2329.60
49052;DHT22;34866;48.670;18.260;2023-08-08T18:13:36;384.20;2329.60
49052;DHT22;34866;48.670;18.260;2023-08-08T18:16:02;384.10;2329.60
49052;DHT22;34866;48.670;18.260;2023-08-08T18:18:29;384.60;2329.60
49052;DHT22;34866;48.670;18.260;2023-08-08T18:20:55;359.10;2329.60
49052;DHT22;34866;48.670;18.260;2023-08-08T18:23:22;359.00;2329.60
49052;DHT22;34866;48.670;18.260;2023-08-08T18:25:49;359.00;2329.60
49052;DHT22;34866;48.670;18.260;2023-08-08T18:28:21;358.90;2329.60
49052;DHT22;34866;48.670;18.260;2023-08-08T18:30:47;358.80;2329.60
49052;DHT22;34866;48.670;18.260;2023-08-08T18:33:13;358.80;2329.60
49052;DHT22;34866;48.670;18.260;2023-08-08T18:35:40;358.80;2329.60
49052;DHT22;34866;48.670;18.260;2023-08-08T18:38:09;358.60;2329.60
49052;DHT22;34866;48.670;18.260;2023-08-08T18:40:44;358.60;2329.60
49052;DHT22;34866;48.670;18.260;2023-08-08T18:43:13;358.70;2329.60
49052;DHT22;34866;48.670;18.260;2023-08-08T18:45:42;358.50;2329.60
49052;DHT22;34866;48.670;18.260;2023-08-08T18:48:09;358.40;2329.60
49052;DHT22;34866;48.670;18.260;2023-08-08T18:50:35;358.40;2329.60
49052;DHT22;34866;48.670;18.260;2023-08-08T18:53:04;358.40;2329.60
49052;DHT22;34866;48.670;18.260;2023-08-08T18:55:32;358.40;2329.60
49052;DHT22;34866;48.670;18.260;2023-08-08T18:57:58;358.50;2329.60
49052;DHT22;34866;48.670;18.260;2023-08-08T19:00:25;358.40;2329.60
49052;DHT22;34866;48.670;18.260;2023-08-08T19:02:53;358.50;2329.60
49052;DHT22;34866;48.670;18.260;2023-08-08T19:05:19;358.50;2329.60
49052;DHT22;34866;48.670;18.260;2023-08-08T19:07:46;358.60;2329.60
49052;DHT22;34866;48.670;18.260;2023-08-08T19:10:13;358.50;2329.60
49052;DHT22;34866;48.670;18.260;2023-08-08T19:12:41;358.60;2329.60
49052;DHT22;34866;48.670;18.260;2023-08-08T19:15:09;358.50;2329.60
49052;DHT22;34866;48.670;18.260;2023-08-08T19:17:35;358.50;2329.60
49052;DHT22;34866;48.670;18.260;2023-08-08T19:20:05;358.50;2329.60
49052;DHT22;34866;48.670;18.260;2023-08-08T19:22:37;358.50;2329.60